Summer Point, Vermont
Current Conditions -  °F | °C
As of 11:35 PM on Tuesday 21 Oct 2014 (Local Time) from K6B0 Reporting Station
Overcast Overcast  
Wind Chill:   Ceiling: 300
Heat Index:   Visibility: 7mi
Dew Point:   Wind: 3mph
Humidity: 100%   Direction: 350°N
Pressure: 30.07"   Gusts: NA
Location:  44.0804°N, 73.3324°W
Report Text: K6B0 220335Z AUTO 35003KT 7SM OVC003 09/09 A3007 RMK AO2 T00890089
Loading
Personal Weather Stations






























Interactive Weather Map
Tropical Storm Tracking
New forecast layout! Learn more

10-Day Weather Forecast

Advertisements
Track Severe Weather on mobile